sensor_id;sensor_type;location;lat;lon;timestamp;P1;durP1;ratioP1;P2;durP2;ratioP2
26034;SDS011;13809;48.632;11.576;2023-02-08T00:01:24;11.20;;;8.47;;
26034;SDS011;13809;48.632;11.576;2023-02-08T00:06:29;9.70;;;8.03;;
26034;SDS011;13809;48.632;11.576;2023-02-08T00:11:33;10.93;;;7.77;;
26034;SDS011;13809;48.632;11.576;2023-02-08T00:16:36;9.37;;;7.20;;
26034;SDS011;13809;48.632;11.576;2023-02-08T00:21:40;8.17;;;6.80;;
26034;SDS011;13809;48.632;11.576;2023-02-08T00:26:43;10.17;;;7.53;;
26034;SDS011;13809;48.632;11.576;2023-02-08T00:31:47;9.10;;;7.83;;
26034;SDS011;13809;48.632;11.576;2023-02-08T00:36:51;8.83;;;7.53;;
26034;SDS011;13809;48.632;11.576;2023-02-08T00:41:54;9.13;;;7.00;;
26034;SDS011;13809;48.632;11.576;2023-02-08T00:46:57;10.10;;;7.47;;
26034;SDS011;13809;48.632;11.576;2023-02-08T00:52:02;9.00;;;7.20;;
26034;SDS011;13809;48.632;11.576;2023-02-08T00:57:05;7.17;;;5.97;;
26034;SDS011;13809;48.632;11.576;2023-02-08T01:02:08;8.67;;;6.47;;
26034;SDS011;13809;48.632;11.576;2023-02-08T01:07:13;8.17;;;6.77;;
26034;SDS011;13809;48.632;11.576;2023-02-08T01:12:16;7.67;;;6.03;;
26034;SDS011;13809;48.632;11.576;2023-02-08T01:17:19;7.07;;;5.77;;
26034;SDS011;13809;48.632;11.576;2023-02-08T01:22:24;8.70;;;6.23;;
26034;SDS011;13809;48.632;11.576;2023-02-08T01:27:29;6.60;;;5.53;;
26034;SDS011;13809;48.632;11.576;2023-02-08T01:32:33;7.40;;;6.17;;
26034;SDS011;13809;48.632;11.576;2023-02-08T01:37:38;7.67;;;5.53;;
26034;SDS011;13809;48.632;11.576;2023-02-08T01:42:41;8.03;;;6.03;;
26034;SDS011;13809;48.632;11.576;2023-02-08T01:47:44;7.70;;;5.83;;
26034;SDS011;13809;48.632;11.576;2023-02-08T01:52:51;7.93;;;6.07;;
26034;SDS011;13809;48.632;11.576;2023-02-08T01:57:55;7.90;;;5.77;;
26034;SDS011;13809;48.632;11.576;2023-02-08T02:03:01;9.07;;;6.07;;
26034;SDS011;13809;48.632;11.576;2023-02-08T02:08:07;10.27;;;6.37;;
26034;SDS011;13809;48.632;11.576;2023-02-08T02:13:12;10.50;;;6.20;;
26034;SDS011;13809;48.632;11.576;2023-02-08T02:18:19;8.90;;;6.33;;
26034;SDS011;13809;48.632;11.576;2023-02-08T02:23:33;8.53;;;6.87;;
26034;SDS011;13809;48.632;11.576;2023-02-08T02:34:51;9.97;;;7.23;;
26034;SDS011;13809;48.632;11.576;2023-02-08T02:40:04;10.53;;;7.43;;
26034;SDS011;13809;48.632;11.576;2023-02-08T02:45:18;11.20;;;7.60;;
26034;SDS011;13809;48.632;11.576;2023-02-08T02:50:29;10.73;;;8.20;;
26034;SDS011;13809;48.632;11.576;2023-02-08T02:55:38;11.57;;;8.87;;
26034;SDS011;13809;48.632;11.576;2023-02-08T03:00:49;8.83;;;7.67;;
26034;SDS011;13809;48.632;11.576;2023-02-08T03:05:56;12.67;;;8.47;;
26034;SDS011;13809;48.632;11.576;2023-02-08T03:11:08;12.03;;;8.37;;
26034;SDS011;13809;48.632;11.576;2023-02-08T03:16:23;10.33;;;8.30;;
26034;SDS011;13809;48.632;11.576;2023-02-08T03:21:38;12.57;;;8.93;;
26034;SDS011;13809;48.632;11.576;2023-02-08T03:26:45;11.73;;;8.53;;
26034;SDS011;13809;48.632;11.576;2023-02-08T03:31:55;11.13;;;8.87;;
26034;SDS011;13809;48.632;11.576;2023-02-08T03:37:03;13.53;;;8.90;;
26034;SDS011;13809;48.632;11.576;2023-02-08T03:42:12;12.70;;;8.57;;
26034;SDS011;13809;48.632;11.576;2023-02-08T03:47:28;12.87;;;9.07;;
26034;SDS011;13809;48.632;11.576;2023-02-08T03:52:36;13.47;;;10.03;;
26034;SDS011;13809;48.632;11.576;2023-02-08T03:57:42;13.50;;;9.23;;
26034;SDS011;13809;48.632;11.576;2023-02-08T04:02:51;13.23;;;9.13;;
26034;SDS011;13809;48.632;11.576;2023-02-08T04:07:59;12.93;;;10.13;;
26034;SDS011;13809;48.632;11.576;2023-02-08T04:13:02;11.70;;;9.47;;
26034;SDS011;13809;48.632;11.576;2023-02-08T04:18:06;13.30;;;9.63;;
26034;SDS011;13809;48.632;11.576;2023-02-08T04:23:10;14.03;;;9.50;;
26034;SDS011;13809;48.632;11.576;2023-02-08T04:28:13;14.17;;;9.47;;
26034;SDS011;13809;48.632;11.576;2023-02-08T04:33:16;13.17;;;10.03;;
26034;SDS011;13809;48.632;11.576;2023-02-08T04:38:21;12.07;;;9.03;;
26034;SDS011;13809;48.632;11.576;2023-02-08T04:43:24;13.40;;;9.50;;
26034;SDS011;13809;48.632;11.576;2023-02-08T04:48:27;14.10;;;9.57;;
26034;SDS011;13809;48.632;11.576;2023-02-08T04:53:32;13.33;;;9.53;;
26034;SDS011;13809;48.632;11.576;2023-02-08T04:58:35;13.03;;;9.97;;
26034;SDS011;13809;48.632;11.576;2023-02-08T05:03:38;12.50;;;8.60;;
26034;SDS011;13809;48.632;11.576;2023-02-08T05:08:42;13.80;;;9.67;;
26034;SDS011;13809;48.632;11.576;2023-02-08T05:13:45;10.63;;;9.37;;
26034;SDS011;13809;48.632;11.576;2023-02-08T05:18:49;12.23;;;9.07;;
26034;SDS011;13809;48.632;11.576;2023-02-08T05:23:53;13.40;;;9.40;;
26034;SDS011;13809;48.632;11.576;2023-02-08T05:28:56;13.53;;;9.50;;
26034;SDS011;13809;48.632;11.576;2023-02-08T05:33:59;11.80;;;8.23;;
26034;SDS011;13809;48.632;11.576;2023-02-08T05:39:04;11.77;;;9.00;;
26034;SDS011;13809;48.632;11.576;2023-02-08T05:44:07;12.13;;;9.07;;
26034;SDS011;13809;48.632;11.576;2023-02-08T05:49:10;12.27;;;8.43;;
26034;SDS011;13809;48.632;11.576;2023-02-08T05:54:15;10.37;;;8.40;;
26034;SDS011;13809;48.632;11.576;2023-02-08T05:59:18;14.23;;;9.87;;
26034;SDS011;13809;48.632;11.576;2023-02-08T06:04:22;11.47;;;9.10;;
26034;SDS011;13809;48.632;11.576;2023-02-08T06:09:26;11.77;;;9.10;;
26034;SDS011;13809;48.632;11.576;2023-02-08T06:14:29;14.00;;;9.60;;
26034;SDS011;13809;48.632;11.576;2023-02-08T06:19:32;11.50;;;8.97;;
26034;SDS011;13809;48.632;11.576;2023-02-08T06:24:37;10.83;;;7.90;;
26034;SDS011;13809;48.632;11.576;2023-02-08T06:29:41;11.40;;;9.17;;
26034;SDS011;13809;48.632;11.576;2023-02-08T06:34:44;12.50;;;9.20;;
26034;SDS011;13809;48.632;11.576;2023-02-08T06:39:49;12.63;;;9.47;;
26034;SDS011;13809;48.632;11.576;2023-02-08T06:44:52;13.33;;;8.97;;
26034;SDS011;13809;48.632;11.576;2023-02-08T06:49:56;13.60;;;9.07;;
26034;SDS011;13809;48.632;11.576;2023-02-08T06:55:00;13.53;;;9.83;;
26034;SDS011;13809;48.632;11.576;2023-02-08T07:00:04;11.30;;;9.53;;
26034;SDS011;13809;48.632;11.576;2023-02-08T07:05:07;12.97;;;9.80;;
26034;SDS011;13809;48.632;11.576;2023-02-08T07:10:12;13.27;;;9.60;;
26034;SDS011;13809;48.632;11.576;2023-02-08T07:15:15;13.60;;;10.40;;
26034;SDS011;13809;48.632;11.576;2023-02-08T07:20:19;13.57;;;10.10;;
26034;SDS011;13809;48.632;11.576;2023-02-08T07:25:23;14.70;;;10.70;;
26034;SDS011;13809;48.632;11.576;2023-02-08T07:30:26;14.00;;;10.40;;
26034;SDS011;13809;48.632;11.576;2023-02-08T07:35:30;16.80;;;10.97;;
26034;SDS011;13809;48.632;11.576;2023-02-08T07:40:34;13.30;;;10.10;;
26034;SDS011;13809;48.632;11.576;2023-02-08T07:45:37;16.63;;;10.80;;
26034;SDS011;13809;48.632;11.576;2023-02-08T07:50:40;14.87;;;10.87;;
26034;SDS011;13809;48.632;11.576;2023-02-08T07:55:45;13.13;;;10.23;;
26034;SDS011;13809;48.632;11.576;2023-02-08T08:00:48;13.70;;;10.67;;
26034;SDS011;13809;48.632;11.576;2023-02-08T08:05:51;16.43;;;11.37;;
26034;SDS011;13809;48.632;11.576;2023-02-08T08:10:56;15.23;;;11.03;;
26034;SDS011;13809;48.632;11.576;2023-02-08T08:15:59;14.37;;;11.63;;
26034;SDS011;13809;48.632;11.576;2023-02-08T08:21:03;15.73;;;11.33;;
26034;SDS011;13809;48.632;11.576;2023-02-08T08:26:08;16.97;;;11.93;;
26034;SDS011;13809;48.632;11.576;2023-02-08T08:31:14;17.87;;;12.53;;
26034;SDS011;13809;48.632;11.576;2023-02-08T08:36:19;17.07;;;12.57;;
26034;SDS011;13809;48.632;11.576;2023-02-08T08:41:23;16.87;;;12.17;;
26034;SDS011;13809;48.632;11.576;2023-02-08T08:46:27;15.63;;;12.57;;
26034;SDS011;13809;48.632;11.576;2023-02-08T08:51:31;15.77;;;12.47;;
26034;SDS011;13809;48.632;11.576;2023-02-08T08:56:37;15.27;;;12.80;;
26034;SDS011;13809;48.632;11.576;2023-02-08T09:01:40;15.97;;;12.20;;
26034;SDS011;13809;48.632;11.576;2023-02-08T09:06:43;15.37;;;12.10;;
26034;SDS011;13809;48.632;11.576;2023-02-08T09:11:48;18.17;;;13.33;;
26034;SDS011;13809;48.632;11.576;2023-02-08T09:16:51;14.37;;;11.70;;
26034;SDS011;13809;48.632;11.576;2023-02-08T09:21:55;17.17;;;13.00;;
26034;SDS011;13809;48.632;11.576;2023-02-08T09:26:59;17.43;;;13.53;;
26034;SDS011;13809;48.632;11.576;2023-02-08T09:32:03;16.60;;;13.73;;
26034;SDS011;13809;48.632;11.576;2023-02-08T09:37:06;18.83;;;13.80;;
26034;SDS011;13809;48.632;11.576;2023-02-08T09:42:15;17.47;;;13.83;;
26034;SDS011;13809;48.632;11.576;2023-02-08T09:47:40;15.00;;;13.30;;
26034;SDS011;13809;48.632;11.576;2023-02-08T09:52:51;16.23;;;13.23;;
26034;SDS011;13809;48.632;11.576;2023-02-08T09:58:00;15.10;;;13.07;;
26034;SDS011;13809;48.632;11.576;2023-02-08T10:03:07;15.40;;;12.67;;
26034;SDS011;13809;48.632;11.576;2023-02-08T10:08:25;16.07;;;12.90;;
26034;SDS011;13809;48.632;11.576;2023-02-08T10:19:03;15.40;;;12.70;;
26034;SDS011;13809;48.632;11.576;2023-02-08T10:24:26;13.17;;;11.83;;
26034;SDS011;13809;48.632;11.576;2023-02-08T10:29:49;14.73;;;12.20;;
26034;SDS011;13809;48.632;11.576;2023-02-08T10:35:16;14.97;;;12.33;;
26034;SDS011;13809;48.632;11.576;2023-02-08T10:40:31;17.57;;;12.30;;
26034;SDS011;13809;48.632;11.576;2023-02-08T10:45:42;14.63;;;12.07;;
26034;SDS011;13809;48.632;11.576;2023-02-08T10:50:51;17.70;;;13.60;;
26034;SDS011;13809;48.632;11.576;2023-02-08T10:55:54;15.63;;;13.50;;
26034;SDS011;13809;48.632;11.576;2023-02-08T11:00:58;15.13;;;12.40;;
26034;SDS011;13809;48.632;11.576;2023-02-08T11:06:04;13.93;;;12.17;;
26034;SDS011;13809;48.632;11.576;2023-02-08T11:11:17;14.30;;;12.17;;
26034;SDS011;13809;48.632;11.576;2023-02-08T11:16:22;13.13;;;11.73;;
26034;SDS011;13809;48.632;11.576;2023-02-08T11:21:28;15.83;;;12.57;;
26034;SDS011;13809;48.632;11.576;2023-02-08T11:26:34;13.20;;;11.60;;
26034;SDS011;13809;48.632;11.576;2023-02-08T11:31:40;12.73;;;10.87;;
26034;SDS011;13809;48.632;11.576;2023-02-08T11:37:00;13.07;;;10.63;;
26034;SDS011;13809;48.632;11.576;2023-02-08T11:42:06;12.33;;;10.73;;
26034;SDS011;13809;48.632;11.576;2023-02-08T11:47:24;11.67;;;9.63;;
26034;SDS011;13809;48.632;11.576;2023-02-08T11:52:30;10.07;;;8.87;;
26034;SDS011;13809;48.632;11.576;2023-02-08T11:57:35;10.47;;;9.10;;
26034;SDS011;13809;48.632;11.576;2023-02-08T12:02:55;10.80;;;9.03;;
26034;SDS011;13809;48.632;11.576;2023-02-08T12:08:03;11.93;;;10.30;;
26034;SDS011;13809;48.632;11.576;2023-02-08T12:13:18;11.17;;;9.17;;
26034;SDS011;13809;48.632;11.576;2023-02-08T12:18:49;10.73;;;9.63;;
26034;SDS011;13809;48.632;11.576;2023-02-08T12:24:06;11.13;;;9.67;;
26034;SDS011;13809;48.632;11.576;2023-02-08T12:34:54;11.70;;;10.37;;
26034;SDS011;13809;48.632;11.576;2023-02-08T12:40:10;11.90;;;10.57;;
26034;SDS011;13809;48.632;11.576;2023-02-08T12:45:53;12.20;;;10.73;;
26034;SDS011;13809;48.632;11.576;2023-02-08T12:51:10;12.60;;;10.90;;
26034;SDS011;13809;48.632;11.576;2023-02-08T12:56:25;12.40;;;10.47;;
26034;SDS011;13809;48.632;11.576;2023-02-08T13:01:33;12.53;;;11.17;;
26034;SDS011;13809;48.632;11.576;2023-02-08T13:06:42;13.17;;;11.20;;
26034;SDS011;13809;48.632;11.576;2023-02-08T13:11:51;12.27;;;10.43;;
26034;SDS011;13809;48.632;11.576;2023-02-08T13:16:59;13.93;;;11.57;;
26034;SDS011;13809;48.632;11.576;2023-02-08T13:22:12;12.57;;;10.83;;
26034;SDS011;13809;48.632;11.576;2023-02-08T13:27:17;11.87;;;10.40;;
26034;SDS011;13809;48.632;11.576;2023-02-08T13:32:23;11.97;;;10.73;;
26034;SDS011;13809;48.632;11.576;2023-02-08T13:37:32;14.23;;;11.63;;
26034;SDS011;13809;48.632;11.576;2023-02-08T13:42:38;11.93;;;9.90;;
26034;SDS011;13809;48.632;11.576;2023-02-08T13:47:44;12.67;;;10.37;;
26034;SDS011;13809;48.632;11.576;2023-02-08T13:52:53;10.80;;;9.43;;
26034;SDS011;13809;48.632;11.576;2023-02-08T13:57:57;11.90;;;10.17;;
26034;SDS011;13809;48.632;11.576;2023-02-08T14:03:01;11.57;;;10.37;;
26034;SDS011;13809;48.632;11.576;2023-02-08T14:08:22;12.40;;;9.83;;
26034;SDS011;13809;48.632;11.576;2023-02-08T14:13:33;12.23;;;10.20;;
26034;SDS011;13809;48.632;11.576;2023-02-08T14:18:39;10.93;;;9.67;;
26034;SDS011;13809;48.632;11.576;2023-02-08T14:23:59;11.07;;;9.37;;
26034;SDS011;13809;48.632;11.576;2023-02-08T14:29:04;11.10;;;9.23;;
26034;SDS011;13809;48.632;11.576;2023-02-08T14:39:36;10.13;;;9.03;;
26034;SDS011;13809;48.632;11.576;2023-02-08T14:44:43;10.80;;;8.83;;
26034;SDS011;13809;48.632;11.576;2023-02-08T14:49:50;11.23;;;9.27;;
26034;SDS011;13809;48.632;11.576;2023-02-08T14:55:05;9.80;;;8.37;;
26034;SDS011;13809;48.632;11.576;2023-02-08T15:00:16;9.83;;;8.83;;
26034;SDS011;13809;48.632;11.576;2023-02-08T15:05:24;10.17;;;8.43;;
26034;SDS011;13809;48.632;11.576;2023-02-08T15:10:32;9.83;;;8.80;;
26034;SDS011;13809;48.632;11.576;2023-02-08T15:15:37;8.53;;;7.60;;
26034;SDS011;13809;48.632;11.576;2023-02-08T15:20:42;10.30;;;9.20;;
26034;SDS011;13809;48.632;11.576;2023-02-08T15:25:54;11.03;;;9.23;;
26034;SDS011;13809;48.632;11.576;2023-02-08T15:30:59;9.73;;;8.70;;
26034;SDS011;13809;48.632;11.576;2023-02-08T15:36:06;10.27;;;9.17;;
26034;SDS011;13809;48.632;11.576;2023-02-08T15:41:24;9.47;;;8.47;;
26034;SDS011;13809;48.632;11.576;2023-02-08T15:46:28;10.00;;;9.00;;
26034;SDS011;13809;48.632;11.576;2023-02-08T15:51:32;10.87;;;9.50;;
26034;SDS011;13809;48.632;11.576;2023-02-08T15:56:36;10.63;;;9.47;;
26034;SDS011;13809;48.632;11.576;2023-02-08T16:01:44;11.67;;;9.77;;
26034;SDS011;13809;48.632;11.576;2023-02-08T16:06:49;10.13;;;8.57;;
26034;SDS011;13809;48.632;11.576;2023-02-08T16:11:57;9.30;;;8.30;;
26034;SDS011;13809;48.632;11.576;2023-02-08T16:17:01;10.43;;;9.30;;
26034;SDS011;13809;48.632;11.576;2023-02-08T16:22:14;9.90;;;8.90;;
26034;SDS011;13809;48.632;11.576;2023-02-08T16:27:28;9.53;;;8.53;;
26034;SDS011;13809;48.632;11.576;2023-02-08T16:32:34;9.77;;;8.70;;
26034;SDS011;13809;48.632;11.576;2023-02-08T16:37:39;9.50;;;8.50;;
26034;SDS011;13809;48.632;11.576;2023-02-08T16:42:45;11.53;;;9.10;;
26034;SDS011;13809;48.632;11.576;2023-02-08T16:47:49;7.90;;;6.80;;
26034;SDS011;13809;48.632;11.576;2023-02-08T16:52:54;8.70;;;7.77;;
26034;SDS011;13809;48.632;11.576;2023-02-08T16:58:01;9.93;;;8.67;;
26034;SDS011;13809;48.632;11.576;2023-02-08T17:03:04;9.67;;;8.67;;
26034;SDS011;13809;48.632;11.576;2023-02-08T17:08:11;10.67;;;9.07;;
26034;SDS011;13809;48.632;11.576;2023-02-08T17:13:18;9.83;;;8.73;;
26034;SDS011;13809;48.632;11.576;2023-02-08T17:18:24;9.73;;;8.43;;
26034;SDS011;13809;48.632;11.576;2023-02-08T17:23:28;9.70;;;8.50;;
26034;SDS011;13809;48.632;11.576;2023-02-08T17:28:32;10.97;;;7.13;;
26034;SDS011;13809;48.632;11.576;2023-02-08T17:33:39;10.87;;;8.30;;
26034;SDS011;13809;48.632;11.576;2023-02-08T17:38:42;10.10;;;8.53;;
26034;SDS011;13809;48.632;11.576;2023-02-08T17:43:49;9.13;;;7.80;;
26034;SDS011;13809;48.632;11.576;2023-02-08T17:48:53;9.07;;;7.73;;
26034;SDS011;13809;48.632;11.576;2023-02-08T17:53:56;10.17;;;8.93;;
26034;SDS011;13809;48.632;11.576;2023-02-08T17:59:01;10.50;;;9.13;;
26034;SDS011;13809;48.632;11.576;2023-02-08T18:04:06;10.73;;;9.03;;
26034;SDS011;13809;48.632;11.576;2023-02-08T18:09:11;8.93;;;7.80;;
26034;SDS011;13809;48.632;11.576;2023-02-08T18:14:15;8.83;;;7.93;;
26034;SDS011;13809;48.632;11.576;2023-02-08T18:19:20;8.97;;;8.07;;
26034;SDS011;13809;48.632;11.576;2023-02-08T18:24:23;7.30;;;6.40;;
26034;SDS011;13809;48.632;11.576;2023-02-08T18:29:28;6.20;;;5.60;;
26034;SDS011;13809;48.632;11.576;2023-02-08T18:34:32;10.03;;;7.40;;
26034;SDS011;13809;48.632;11.576;2023-02-08T18:39:35;8.07;;;7.20;;
26034;SDS011;13809;48.632;11.576;2023-02-08T18:44:40;7.70;;;6.90;;
26034;SDS011;13809;48.632;11.576;2023-02-08T18:49:43;7.40;;;6.40;;
26034;SDS011;13809;48.632;11.576;2023-02-08T18:54:48;9.00;;;7.70;;
26034;SDS011;13809;48.632;11.576;2023-02-08T18:59:52;9.07;;;7.97;;
26034;SDS011;13809;48.632;11.576;2023-02-08T19:04:56;9.50;;;7.63;;
26034;SDS011;13809;48.632;11.576;2023-02-08T19:09:59;10.27;;;7.17;;
26034;SDS011;13809;48.632;11.576;2023-02-08T19:15:04;8.27;;;7.37;;
26034;SDS011;13809;48.632;11.576;2023-02-08T19:20:08;12.00;;;7.77;;
26034;SDS011;13809;48.632;11.576;2023-02-08T19:25:12;7.27;;;6.20;;
26034;SDS011;13809;48.632;11.576;2023-02-08T19:30:18;6.90;;;6.10;;
26034;SDS011;13809;48.632;11.576;2023-02-08T19:35:22;6.17;;;5.57;;
26034;SDS011;13809;48.632;11.576;2023-02-08T19:40:25;7.53;;;6.20;;
26034;SDS011;13809;48.632;11.576;2023-02-08T19:45:30;7.40;;;5.77;;
26034;SDS011;13809;48.632;11.576;2023-02-08T19:50:33;4.90;;;4.40;;
26034;SDS011;13809;48.632;11.576;2023-02-08T19:55:36;5.17;;;4.67;;
26034;SDS011;13809;48.632;11.576;2023-02-08T20:00:41;15.73;;;11.40;;
26034;SDS011;13809;48.632;11.576;2023-02-08T20:05:44;16.03;;;10.87;;
26034;SDS011;13809;48.632;11.576;2023-02-08T20:10:48;12.87;;;8.30;;
26034;SDS011;13809;48.632;11.576;2023-02-08T20:15:55;6.17;;;4.97;;
26034;SDS011;13809;48.632;11.576;2023-02-08T20:21:00;4.40;;;4.00;;
26034;SDS011;13809;48.632;11.576;2023-02-08T20:26:05;5.20;;;4.20;;
26034;SDS011;13809;48.632;11.576;2023-02-08T20:31:12;4.97;;;4.03;;
26034;SDS011;13809;48.632;11.576;2023-02-08T20:36:17;4.63;;;4.07;;
26034;SDS011;13809;48.632;11.576;2023-02-08T20:41:23;5.43;;;4.33;;
26034;SDS011;13809;48.632;11.576;2023-02-08T20:46:30;5.00;;;4.03;;
26034;SDS011;13809;48.632;11.576;2023-02-08T20:51:35;5.63;;;5.03;;
26034;SDS011;13809;48.632;11.576;2023-02-08T20:56:38;8.53;;;7.20;;
26034;SDS011;13809;48.632;11.576;2023-02-08T21:01:43;6.17;;;5.40;;
26034;SDS011;13809;48.632;11.576;2023-02-08T21:06:50;5.13;;;4.63;;
26034;SDS011;13809;48.632;11.576;2023-02-08T21:11:54;5.97;;;4.97;;
26034;SDS011;13809;48.632;11.576;2023-02-08T21:16:58;5.43;;;4.40;;
26034;SDS011;13809;48.632;11.576;2023-02-08T21:22:04;4.87;;;4.33;;
26034;SDS011;13809;48.632;11.576;2023-02-08T21:27:07;4.73;;;4.13;;
26034;SDS011;13809;48.632;11.576;2023-02-08T21:32:12;5.37;;;4.20;;
26034;SDS011;13809;48.632;11.576;2023-02-08T21:37:15;4.47;;;4.07;;
26034;SDS011;13809;48.632;11.576;2023-02-08T21:42:18;5.30;;;4.33;;
26034;SDS011;13809;48.632;11.576;2023-02-08T21:47:23;4.73;;;3.90;;
26034;SDS011;13809;48.632;11.576;2023-02-08T21:52:26;4.20;;;3.67;;
26034;SDS011;13809;48.632;11.576;2023-02-08T21:57:46;4.73;;;4.23;;
26034;SDS011;13809;48.632;11.576;2023-02-08T22:02:51;6.73;;;5.30;;
26034;SDS011;13809;48.632;11.576;2023-02-08T22:07:55;4.77;;;4.20;;
26034;SDS011;13809;48.632;11.576;2023-02-08T22:12:59;4.47;;;3.90;;
26034;SDS011;13809;48.632;11.576;2023-02-08T22:18:04;4.00;;;3.57;;
26034;SDS011;13809;48.632;11.576;2023-02-08T22:23:07;4.63;;;3.63;;
26034;SDS011;13809;48.632;11.576;2023-02-08T22:28:10;4.93;;;3.97;;
26034;SDS011;13809;48.632;11.576;2023-02-08T22:33:15;5.80;;;4.20;;
26034;SDS011;13809;48.632;11.576;2023-02-08T22:38:18;4.37;;;3.80;;
26034;SDS011;13809;48.632;11.576;2023-02-08T22:43:21;4.37;;;3.83;;
26034;SDS011;13809;48.632;11.576;2023-02-08T22:48:26;8.13;;;3.53;;
26034;SDS011;13809;48.632;11.576;2023-02-08T22:53:29;5.93;;;4.47;;
26034;SDS011;13809;48.632;11.576;2023-02-08T22:58:32;5.17;;;3.90;;
26034;SDS011;13809;48.632;11.576;2023-02-08T23:03:37;4.20;;;3.70;;
26034;SDS011;13809;48.632;11.576;2023-02-08T23:08:43;5.43;;;4.10;;
26034;SDS011;13809;48.632;11.576;2023-02-08T23:13:46;5.37;;;4.20;;
26034;SDS011;13809;48.632;11.576;2023-02-08T23:18:50;4.80;;;3.73;;
26034;SDS011;13809;48.632;11.576;2023-02-08T23:23:54;5.70;;;4.00;;
26034;SDS011;13809;48.632;11.576;2023-02-08T23:28:57;4.73;;;3.50;;
26034;SDS011;13809;48.632;11.576;2023-02-08T23:34:01;4.20;;;3.23;;
26034;SDS011;13809;48.632;11.576;2023-02-08T23:39:05;4.00;;;3.60;;
26034;SDS011;13809;48.632;11.576;2023-02-08T23:44:08;3.23;;;2.87;;
26034;SDS011;13809;48.632;11.576;2023-02-08T23:49:12;3.63;;;3.20;;
26034;SDS011;13809;48.632;11.576;2023-02-08T23:54:15;3.77;;;3.17;;
26034;SDS011;13809;48.632;11.576;2023-02-08T23:59:18;4.47;;;3.00;;
